createdAt,value
2023-03-11T00:01:08.287Z,100.00
2023-03-11T00:03:36.293Z,100.00
2023-03-11T00:06:06.438Z,100.00
2023-03-11T00:08:34.397Z,100.00
2023-03-11T00:11:02.423Z,100.00
2023-03-11T00:13:30.609Z,100.00
2023-03-11T00:15:59.796Z,100.00
2023-03-11T00:18:30.152Z,100.00
2023-03-11T00:20:58.623Z,100.00
2023-03-11T00:23:28.014Z,100.00
2023-03-11T00:25:56.002Z,100.00
2023-03-11T00:28:26.118Z,100.00
2023-03-11T00:30:54.165Z,100.00
2023-03-11T00:33:22.188Z,100.00
2023-03-11T00:35:51.160Z,100.00
2023-03-11T00:38:19.208Z,100.00
2023-03-11T00:40:49.088Z,100.00
2023-03-11T00:43:17.187Z,100.00
2023-03-11T00:45:45.251Z,100.00
2023-03-11T00:48:13.237Z,100.00
2023-03-11T00:50:41.524Z,100.00
2023-03-11T00:53:09.498Z,100.00
2023-03-11T00:55:37.521Z,100.00
2023-03-11T00:58:07.421Z,100.00
2023-03-11T01:00:35.628Z,100.00
2023-03-11T01:03:03.703Z,100.00
2023-03-11T01:05:32.372Z,100.00
2023-03-11T01:08:00.434Z,100.00
2023-03-11T01:10:28.616Z,100.00
2023-03-11T01:12:56.608Z,100.00
2023-03-11T01:15:27.572Z,100.00
2023-03-11T01:17:55.603Z,100.00
2023-03-11T01:20:23.756Z,100.00
2023-03-11T01:22:51.772Z,100.00
2023-03-11T01:25:20.439Z,100.00
2023-03-11T01:27:48.417Z,100.00
2023-03-11T01:30:17.542Z,100.00
2023-03-11T01:32:46.955Z,100.00
2023-03-11T01:35:15.299Z,100.00
2023-03-11T01:37:43.274Z,100.00
2023-03-11T01:40:15.257Z,100.00
2023-03-11T01:42:43.198Z,100.00
2023-03-11T01:45:50.114Z,100.00
2023-03-11T01:48:19.425Z,100.00
2023-03-11T01:50:49.720Z,100.00
2023-03-11T01:53:17.740Z,100.00
2023-03-11T01:55:45.942Z,100.00
2023-03-11T01:58:17.172Z,100.00
2023-03-11T02:00:45.167Z,100.00
2023-03-11T02:03:15.685Z,100.00
2023-03-11T02:05:45.144Z,100.00
2023-03-11T02:08:13.099Z,100.00
2023-03-11T02:10:41.298Z,100.00
2023-03-11T02:13:09.292Z,100.00
2023-03-11T02:15:39.576Z,100.00
2023-03-11T02:18:08.613Z,100.00
2023-03-11T02:20:41.993Z,100.00
2023-03-11T02:23:11.328Z,100.00
2023-03-11T02:25:43.061Z,100.00
2023-03-11T02:28:13.739Z,100.00
2023-03-11T02:30:42.247Z,100.00
2023-03-11T02:33:10.497Z,100.00
2023-03-11T02:35:38.550Z,100.00
2023-03-11T02:38:06.513Z,100.00
2023-03-11T02:40:53.137Z,100.00
2023-03-11T02:43:24.700Z,100.00
2023-03-11T02:45:52.687Z,100.00
2023-03-11T02:48:20.689Z,100.00
2023-03-11T02:50:48.702Z,100.00
2023-03-11T02:53:16.642Z,100.00
2023-03-11T02:55:44.576Z,100.00
2023-03-11T02:58:12.559Z,100.00
2023-03-11T03:00:41.963Z,100.00
2023-03-11T03:03:10.691Z,100.00
2023-03-11T03:05:38.636Z,100.00
2023-03-11T03:08:06.830Z,100.00
2023-03-11T03:10:34.846Z,100.00
2023-03-11T03:13:02.846Z,100.00
2023-03-11T03:15:30.887Z,100.00
2023-03-11T03:18:00.164Z,100.00
2023-03-11T03:20:28.235Z,100.00
2023-03-11T03:22:56.255Z,100.00
2023-03-11T03:25:24.242Z,100.00
2023-03-11T03:27:52.196Z,100.00
2023-03-11T03:30:20.293Z,100.00
2023-03-11T03:32:48.336Z,100.00
2023-03-11T03:35:17.900Z,100.00
2023-03-11T03:37:45.909Z,100.00
2023-03-11T03:40:14.565Z,100.00
2023-03-11T03:42:42.566Z,100.00
2023-03-11T03:45:11.918Z,100.00
2023-03-11T03:47:40.009Z,100.00
2023-03-11T03:50:09.324Z,100.00
2023-03-11T03:52:38.724Z,100.00
2023-03-11T03:55:07.161Z,100.00
2023-03-11T03:57:35.109Z,100.00
2023-03-11T04:00:04.394Z,100.00
2023-03-11T04:02:32.373Z,100.00
2023-03-11T04:05:00.344Z,100.00
2023-03-11T04:07:28.371Z,100.00
2023-03-11T04:09:59.105Z,100.00
2023-03-11T04:12:27.087Z,100.00
2023-03-11T04:14:55.077Z,100.00
2023-03-11T04:17:23.033Z,100.00
2023-03-11T04:19:51.034Z,100.00
2023-03-11T04:22:18.962Z,100.00
2023-03-11T04:24:47.190Z,100.00
2023-03-11T04:27:16.543Z,100.00
2023-03-11T04:29:44.536Z,100.00
2023-03-11T04:32:12.546Z,100.00
2023-03-11T04:34:40.842Z,100.00
2023-03-11T04:37:08.817Z,100.00
2023-03-11T04:39:36.809Z,100.00
2023-03-11T04:42:04.875Z,100.00
2023-03-11T04:44:36.076Z,100.00
2023-03-11T04:47:04.004Z,100.00
2023-03-11T04:49:31.971Z,100.00
2023-03-11T04:51:59.982Z,100.00
2023-03-11T04:54:27.937Z,100.00
2023-03-11T04:56:55.904Z,100.00
2023-03-11T04:59:23.845Z,100.00
2023-03-11T05:01:53.576Z,100.00
2023-03-11T05:04:21.576Z,100.00
2023-03-11T05:06:51.236Z,100.00
2023-03-11T05:09:19.219Z,100.00
2023-03-11T05:11:47.185Z,100.00
2023-03-11T05:14:15.168Z,100.00
2023-03-11T05:16:43.160Z,100.00
2023-03-11T05:19:26.368Z,100.00
2023-03-11T05:21:54.385Z,100.00
2023-03-11T05:24:22.372Z,100.00
2023-03-11T05:26:50.398Z,100.00
2023-03-11T05:29:18.463Z,100.00
2023-03-11T05:31:47.002Z,100.00
2023-03-11T05:34:16.731Z,100.00
2023-03-11T05:36:44.668Z,100.00
2023-03-11T05:39:12.684Z,100.00
2023-03-11T05:41:40.678Z,100.00
2023-03-11T05:44:08.648Z,100.00
2023-03-11T05:46:36.668Z,100.00
2023-03-11T05:49:04.670Z,100.00
2023-03-11T05:51:34.219Z,100.00
2023-03-11T05:54:02.146Z,100.00
2023-03-11T05:56:30.136Z,100.00
2023-03-11T05:58:58.672Z,100.00
2023-03-11T06:01:26.599Z,100.00
2023-03-11T06:03:54.586Z,100.00
2023-03-11T06:06:23.922Z,100.00
2023-03-11T06:08:53.177Z,100.00
2023-03-11T06:11:21.143Z,100.00
2023-03-11T06:13:49.068Z,100.00
2023-03-11T06:16:17.067Z,100.00
2023-03-11T06:18:45.073Z,100.00
2023-03-11T06:21:14.727Z,100.00
2023-03-11T06:23:42.656Z,100.00
2023-03-11T06:26:13.060Z,100.00
2023-03-11T06:28:41.005Z,100.00
2023-03-11T06:31:09.212Z,100.00
2023-03-11T06:33:37.228Z,100.00
2023-03-11T06:36:05.919Z,100.00
2023-03-11T06:38:36.275Z,100.00
2023-03-11T06:41:06.021Z,100.00
2023-03-11T06:43:35.428Z,100.00
2023-03-11T06:46:03.575Z,100.00
2023-03-11T06:48:31.597Z,100.00
2023-03-11T06:51:00.073Z,100.00
2023-03-11T06:53:28.081Z,100.00
2023-03-11T06:56:00.666Z,100.00
2023-03-11T06:58:28.684Z,100.00
2023-03-11T07:01:01.766Z,100.00
2023-03-11T07:03:29.770Z,100.00
2023-03-11T07:05:58.096Z,100.00
2023-03-11T07:08:26.332Z,100.00
2023-03-11T07:11:04.503Z,100.00
2023-03-11T07:13:32.472Z,100.00
2023-03-11T07:16:05.853Z,100.00
2023-03-11T07:18:33.844Z,100.00
2023-03-11T07:21:02.730Z,100.00
2023-03-11T07:23:30.694Z,100.00
2023-03-11T07:25:58.647Z,100.00
2023-03-11T07:28:26.961Z,100.00
2023-03-11T07:30:55.029Z,100.00
2023-03-11T07:33:24.836Z,100.00
2023-03-11T07:35:52.940Z,100.00
2023-03-11T07:38:21.644Z,100.00
2023-03-11T07:40:49.716Z,100.00
2023-03-11T07:43:17.667Z,100.00
2023-03-11T07:45:45.681Z,100.00
2023-03-11T07:48:13.617Z,100.00
2023-03-11T07:50:42.996Z,100.00
2023-03-11T07:53:10.957Z,100.00
2023-03-11T07:55:38.883Z,100.00
2023-03-11T07:58:07.090Z,100.00
2023-03-11T08:00:35.030Z,100.00
2023-03-11T08:03:02.975Z,100.00
2023-03-11T08:05:34.639Z,100.00
2023-03-11T08:08:04.221Z,100.00
2023-03-11T08:10:32.324Z,100.00
2023-03-11T08:13:00.260Z,100.00
2023-03-11T08:15:28.253Z,100.00
2023-03-11T08:17:58.989Z,100.00
2023-03-11T08:20:27.014Z,100.00
2023-03-11T08:22:58.238Z,100.00
2023-03-11T08:25:29.358Z,100.00
2023-03-11T08:27:57.408Z,97.40
2023-03-11T08:30:25.562Z,91.18
2023-03-11T08:32:53.575Z,94.15
2023-03-11T08:35:21.774Z,87.32
2023-03-11T08:37:49.833Z,87.69
2023-03-11T08:40:17.898Z,87.76
2023-03-11T08:42:47.240Z,90.49
2023-03-11T08:45:15.217Z,92.71
2023-03-11T08:47:43.205Z,92.34
2023-03-11T08:50:14.225Z,96.89
2023-03-11T08:52:43.540Z,93.84
2023-03-11T08:55:13.971Z,95.46
2023-03-11T08:57:42.428Z,90.77
2023-03-11T09:00:13.685Z,89.78
2023-03-11T09:02:41.802Z,88.89
2023-03-11T09:05:10.560Z,87.34
2023-03-11T09:07:38.539Z,89.32
2023-03-11T09:10:06.717Z,90.20
2023-03-11T09:12:34.691Z,91.47
2023-03-11T09:15:02.656Z,94.83
2023-03-11T09:17:32.320Z,92.92
2023-03-11T09:20:00.333Z,93.60
2023-03-11T09:22:28.362Z,89.47
2023-03-11T09:24:56.390Z,85.40
2023-03-11T09:27:24.402Z,81.98
2023-03-11T09:29:52.365Z,76.11
2023-03-11T09:32:20.355Z,74.29
2023-03-11T09:34:49.715Z,72.00
2023-03-11T09:37:17.707Z,71.69
2023-03-11T09:39:45.699Z,69.26
2023-03-11T09:42:18.533Z,70.79
2023-03-11T09:44:47.036Z,66.29
2023-03-11T09:47:32.594Z,64.63
2023-03-11T09:50:22.597Z,62.70
2023-03-11T09:52:57.722Z,62.48
2023-03-11T09:55:32.884Z,62.59
2023-03-11T09:58:03.053Z,64.01
2023-03-11T10:00:31.026Z,65.60
2023-03-11T10:02:59.011Z,66.99
2023-03-11T10:05:29.321Z,65.54
2023-03-11T10:08:00.657Z,61.77
2023-03-11T10:10:30.070Z,61.29
2023-03-11T10:13:00.991Z,58.90
2023-03-11T10:15:37.698Z,57.56
2023-03-11T10:18:14.246Z,55.67
2023-03-11T10:20:48.808Z,56.82
2023-03-11T10:23:23.304Z,57.79
2023-03-11T10:25:56.164Z,58.50
2023-03-11T10:28:25.409Z,57.44
2023-03-11T10:30:54.554Z,58.26
2023-03-11T10:33:25.134Z,59.32
2023-03-11T10:35:55.624Z,56.80
2023-03-11T10:38:24.535Z,55.33
2023-03-11T10:40:53.059Z,54.11
2023-03-11T10:43:22.950Z,51.53
2023-03-11T10:45:51.316Z,51.46
2023-03-11T10:48:20.444Z,51.84
2023-03-11T10:50:57.125Z,52.73
2023-03-11T10:53:25.109Z,54.14
2023-03-11T10:55:53.931Z,54.28
2023-03-11T10:58:23.711Z,55.08
2023-03-11T11:01:05.235Z,55.58
2023-03-11T11:03:33.317Z,56.02
2023-03-11T11:06:04.402Z,56.32
2023-03-11T11:08:32.423Z,56.62
2023-03-11T11:11:00.737Z,54.15
2023-03-11T11:13:30.288Z,53.12
2023-03-11T11:16:00.285Z,50.14
2023-03-11T11:18:30.421Z,48.77
2023-03-11T11:21:05.613Z,47.01
2023-03-11T11:23:36.046Z,43.98
2023-03-11T11:26:05.507Z,43.79
2023-03-11T11:28:33.746Z,42.69
2023-03-11T11:31:02.449Z,42.71
2023-03-11T11:33:31.175Z,44.90
2023-03-11T11:36:00.393Z,46.44
2023-03-11T11:38:30.221Z,46.27
2023-03-11T11:40:59.671Z,47.30
2023-03-11T11:43:43.908Z,45.84
2023-03-11T11:46:16.482Z,45.58
2023-03-11T11:48:48.472Z,45.52
2023-03-11T11:51:19.569Z,46.83
2023-03-11T11:53:51.312Z,46.94
2023-03-11T11:56:19.240Z,47.99
2023-03-11T11:58:47.232Z,49.16
2023-03-11T12:01:16.492Z,49.64
2023-03-11T12:04:18.598Z,51.92
2023-03-11T12:06:49.026Z,53.24
2023-03-11T12:09:24.409Z,54.18
2023-03-11T12:11:53.831Z,54.95
2023-03-11T12:14:23.156Z,55.01
2023-03-11T12:16:53.887Z,53.61
2023-03-11T12:19:27.446Z,48.21
2023-03-11T12:22:07.184Z,48.48
2023-03-11T12:24:51.528Z,51.76
2023-03-11T12:27:22.506Z,53.30
2023-03-11T12:29:51.722Z,54.46
2023-03-11T12:32:23.188Z,53.06
2023-03-11T12:34:51.188Z,52.42
2023-03-11T12:37:19.797Z,52.21
2023-03-11T12:39:49.139Z,50.29
2023-03-11T12:42:18.654Z,50.83
2023-03-11T12:44:46.857Z,52.39
2023-03-11T12:47:35.244Z,52.26
2023-03-11T12:50:39.470Z,54.14
2023-03-11T12:53:07.392Z,53.22
2023-03-11T12:55:37.374Z,53.45
2023-03-11T12:58:30.908Z,53.74
2023-03-11T13:01:15.812Z,53.48
2023-03-11T13:03:49.798Z,53.77
2023-03-11T13:06:25.478Z,53.94
2023-03-11T13:08:54.771Z,54.34
2023-03-11T13:11:37.703Z,54.09
2023-03-11T13:14:38.557Z,52.35
2023-03-11T13:17:25.483Z,52.66
2023-03-11T13:19:54.957Z,52.26
2023-03-11T13:23:16.181Z,52.74
2023-03-11T13:25:44.269Z,51.88
2023-03-11T13:28:35.795Z,52.61
2023-03-11T13:31:22.858Z,52.48
2023-03-11T13:33:52.441Z,53.06
2023-03-11T13:36:33.716Z,53.27
2023-03-11T13:39:49.203Z,53.26
2023-03-11T13:42:21.237Z,53.95
2023-03-11T13:44:50.575Z,53.09
2023-03-11T13:47:19.013Z,53.33
2023-03-11T13:49:47.997Z,54.83
2023-03-11T13:52:16.789Z,55.06
2023-03-11T13:54:46.744Z,55.77
2023-03-11T13:57:25.822Z,57.14
2023-03-11T13:59:55.618Z,59.51
2023-03-11T14:02:25.121Z,61.09
2023-03-11T14:04:54.421Z,62.87
2023-03-11T14:07:26.251Z,64.12
2023-03-11T14:10:21.720Z,65.39
2023-03-11T14:12:49.666Z,65.62
2023-03-11T14:15:21.622Z,66.99
2023-03-11T14:17:49.549Z,67.07
2023-03-11T14:20:18.337Z,66.70
2023-03-11T14:22:47.144Z,70.02
2023-03-11T14:25:19.665Z,70.74
2023-03-11T14:27:54.254Z,71.01
2023-03-11T14:30:25.766Z,73.03
2023-03-11T14:33:00.936Z,72.68
2023-03-11T14:35:29.041Z,72.71
2023-03-11T14:37:56.998Z,72.39
2023-03-11T14:40:29.450Z,73.34
2023-03-11T14:42:58.439Z,74.51
2023-03-11T14:45:29.837Z,73.57
2023-03-11T14:47:59.423Z,72.75
2023-03-11T14:50:28.263Z,72.17
2023-03-11T14:52:57.767Z,71.55
2023-03-11T14:55:28.414Z,71.33
2023-03-11T14:57:56.874Z,71.32
2023-03-11T15:00:27.269Z,71.20
2023-03-11T15:03:00.875Z,70.13
2023-03-11T15:05:32.226Z,69.97
2023-03-11T15:08:01.362Z,70.38
2023-03-11T15:10:29.314Z,70.74
2023-03-11T15:13:06.391Z,70.14
2023-03-11T15:15:35.733Z,71.32
2023-03-11T15:18:04.491Z,73.54
2023-03-11T15:20:33.432Z,73.83
2023-03-11T15:23:02.164Z,74.96
2023-03-11T15:25:31.633Z,74.70
2023-03-11T15:27:59.608Z,76.63
2023-03-11T15:30:28.913Z,77.86
2023-03-11T15:32:58.381Z,78.76
2023-03-11T15:35:26.815Z,79.25
2023-03-11T15:38:13.106Z,80.21
2023-03-11T15:40:45.666Z,80.78
2023-03-11T15:43:21.990Z,81.56
2023-03-11T15:45:50.050Z,82.86
2023-03-11T15:48:19.421Z,82.90
2023-03-11T15:50:53.310Z,84.16
2023-03-11T15:53:22.305Z,85.58
2023-03-11T15:55:50.260Z,85.53
2023-03-11T15:58:18.905Z,84.65
2023-03-11T16:00:48.460Z,83.50
2023-03-11T16:03:16.740Z,83.56
2023-03-11T16:05:46.166Z,84.53
2023-03-11T16:08:14.143Z,83.30
2023-03-11T16:10:42.558Z,84.00
2023-03-11T16:13:11.484Z,85.91
2023-03-11T16:15:39.545Z,86.51
2023-03-11T16:18:08.855Z,88.14
2023-03-11T16:20:38.737Z,89.14
2023-03-11T16:23:08.042Z,86.99
2023-03-11T16:25:37.438Z,86.69
2023-03-11T16:28:05.873Z,86.96
2023-03-11T16:30:34.893Z,86.22
2023-03-11T16:33:04.837Z,85.66
2023-03-11T16:35:33.243Z,82.17
2023-03-11T16:38:01.276Z,77.15
2023-03-11T16:40:30.822Z,76.08
2023-03-11T16:43:00.642Z,75.94
2023-03-11T16:45:28.632Z,75.77
2023-03-11T16:47:56.620Z,74.84
2023-03-11T16:50:25.306Z,74.07
2023-03-11T16:52:53.357Z,73.77
2023-03-11T16:55:21.270Z,73.09
2023-03-11T16:57:50.604Z,73.88
2023-03-11T17:00:19.180Z,76.70
2023-03-11T17:02:47.149Z,77.92
2023-03-11T17:05:15.162Z,75.81
2023-03-11T17:07:43.135Z,74.84
2023-03-11T17:10:11.945Z,74.09
2023-03-11T17:12:39.892Z,71.28
2023-03-11T17:15:10.067Z,71.38
2023-03-11T17:17:38.016Z,71.57
2023-03-11T17:20:07.845Z,70.23
2023-03-11T17:22:35.814Z,67.45
2023-03-11T17:25:03.811Z,67.68
2023-03-11T17:27:32.680Z,66.65
2023-03-11T17:30:01.038Z,66.81
2023-03-11T17:32:30.409Z,65.95
2023-03-11T17:34:58.476Z,65.49
2023-03-11T17:37:26.444Z,65.48
2023-03-11T17:39:54.779Z,64.39
2023-03-11T17:42:22.691Z,65.75
2023-03-11T17:44:52.171Z,64.88
2023-03-11T17:47:21.405Z,64.23
2023-03-11T17:49:50.940Z,64.27
2023-03-11T17:52:18.937Z,65.38
2023-03-11T17:54:46.898Z,65.74
2023-03-11T17:57:14.865Z,64.13
2023-03-11T17:59:42.787Z,64.03
2023-03-11T18:02:13.653Z,65.64
2023-03-11T18:04:43.410Z,65.96
2023-03-11T18:07:12.753Z,66.05
2023-03-11T18:09:40.654Z,67.86
2023-03-11T18:12:08.707Z,73.19
2023-03-11T18:14:37.275Z,89.81
2023-03-11T18:17:05.416Z,99.96
2023-03-11T18:19:33.358Z,100.00
2023-03-11T18:22:01.272Z,100.00
2023-03-11T18:24:30.603Z,100.00
2023-03-11T18:26:58.523Z,100.00
2023-03-11T18:29:26.486Z,100.00
2023-03-11T18:31:54.497Z,100.00
2023-03-11T18:34:23.289Z,98.11
2023-03-11T18:36:51.256Z,94.69
2023-03-11T18:39:19.335Z,89.57
2023-03-11T18:41:48.667Z,91.74
2023-03-11T18:44:16.657Z,85.81
2023-03-11T18:46:44.629Z,85.52
2023-03-11T18:49:12.984Z,81.76
2023-03-11T18:51:41.136Z,81.06
2023-03-11T18:54:09.159Z,79.49
2023-03-11T18:56:37.103Z,80.24
2023-03-11T18:59:07.857Z,76.45
2023-03-11T19:01:35.852Z,76.08
2023-03-11T19:04:03.858Z,75.92
2023-03-11T19:06:31.888Z,76.29
2023-03-11T19:08:59.911Z,74.39
2023-03-11T19:11:27.924Z,74.39
2023-03-11T19:13:56.154Z,73.20
2023-03-11T19:16:26.300Z,69.48
2023-03-11T19:18:55.239Z,69.26
2023-03-11T19:21:23.241Z,70.75
2023-03-11T19:23:52.892Z,69.53
2023-03-11T19:26:23.879Z,69.82
2023-03-11T19:28:55.997Z,69.05
2023-03-11T19:31:25.353Z,70.54
2023-03-11T19:33:53.315Z,70.24
2023-03-11T19:36:21.260Z,70.09
2023-03-11T19:38:49.192Z,69.80
2023-03-11T19:41:18.724Z,71.19
2023-03-11T19:43:46.785Z,70.59
2023-03-11T19:46:15.890Z,70.76
2023-03-11T19:48:45.296Z,70.02
2023-03-11T19:51:13.304Z,71.03
2023-03-11T19:53:41.846Z,71.20
2023-03-11T19:56:10.090Z,71.29
2023-03-11T19:58:38.149Z,71.72
2023-03-11T20:01:06.121Z,72.76
2023-03-11T20:03:34.157Z,73.79
2023-03-11T20:06:06.521Z,74.74
2023-03-11T20:08:36.795Z,74.49
2023-03-11T20:11:05.218Z,75.28
2023-03-11T20:13:33.227Z,75.91
2023-03-11T20:16:06.296Z,75.83
2023-03-11T20:18:34.308Z,74.97
2023-03-11T20:21:07.287Z,75.88
2023-03-11T20:23:35.403Z,74.97
2023-03-11T20:26:06.444Z,74.02
2023-03-11T20:28:34.457Z,73.48
2023-03-11T20:31:11.612Z,72.21
2023-03-11T20:33:39.662Z,73.69
2023-03-11T20:36:10.161Z,73.21
2023-03-11T20:38:38.166Z,70.95
2023-03-11T20:41:08.174Z,70.95
2023-03-11T20:43:36.367Z,70.43
2023-03-11T20:46:04.531Z,69.10
2023-03-11T20:48:32.507Z,67.93
2023-03-11T20:51:01.539Z,67.40
2023-03-11T20:53:31.522Z,66.18
2023-03-11T20:55:59.587Z,66.46
2023-03-11T20:58:27.637Z,66.21
2023-03-11T21:00:55.604Z,64.99
2023-03-11T21:03:23.790Z,64.17
2023-03-11T21:05:51.905Z,62.90
2023-03-11T21:08:20.125Z,62.07
2023-03-11T21:10:49.519Z,60.86
2023-03-11T21:13:17.491Z,60.79
2023-03-11T21:15:45.483Z,60.38
2023-03-11T21:18:13.528Z,60.59
2023-03-11T21:20:41.523Z,60.33
2023-03-11T21:23:09.843Z,59.96
2023-03-11T21:25:39.279Z,60.45
2023-03-11T21:28:08.557Z,60.84
2023-03-11T21:30:36.578Z,59.83
2023-03-11T21:33:04.581Z,60.51
2023-03-11T21:35:32.575Z,59.27
2023-03-11T21:38:00.782Z,59.48
2023-03-11T21:40:28.941Z,58.97
2023-03-11T21:42:56.984Z,59.04
2023-03-11T21:45:26.521Z,59.41
2023-03-11T21:47:54.512Z,58.72
2023-03-11T21:50:22.535Z,58.35
2023-03-11T21:52:50.624Z,58.83
2023-03-11T21:55:18.844Z,58.71
2023-03-11T21:57:46.984Z,58.42
2023-03-11T22:00:15.517Z,58.46
2023-03-11T22:02:44.809Z,58.43
2023-03-11T22:05:13.161Z,57.91
2023-03-11T22:07:41.302Z,58.17
2023-03-11T22:10:09.570Z,58.74
2023-03-11T22:12:37.533Z,58.65
2023-03-11T22:15:06.268Z,58.37
2023-03-11T22:17:34.294Z,59.30
2023-03-11T22:20:05.180Z,58.40
2023-03-11T22:22:33.314Z,57.97
2023-03-11T22:25:01.323Z,59.06
2023-03-11T22:27:29.273Z,58.62
2023-03-11T22:29:57.189Z,58.69
2023-03-11T22:32:25.216Z,59.74
2023-03-11T22:34:53.156Z,59.82
2023-03-11T22:37:22.503Z,59.37
2023-03-11T22:39:50.681Z,59.72
2023-03-11T22:42:18.594Z,59.12
2023-03-11T22:44:46.525Z,60.07
2023-03-11T22:47:14.455Z,59.62
2023-03-11T22:49:42.637Z,60.37
2023-03-11T22:52:10.720Z,59.89
2023-03-11T22:54:40.111Z,60.04
2023-03-11T22:57:08.083Z,60.09
2023-03-11T22:59:36.040Z,59.57
2023-03-11T23:02:03.960Z,60.14
2023-03-11T23:04:31.874Z,60.77
2023-03-11T23:06:59.853Z,59.97
2023-03-11T23:09:27.804Z,60.62
2023-03-11T23:11:57.139Z,60.96
2023-03-11T23:14:37.858Z,59.58
2023-03-11T23:17:11.939Z,60.37
2023-03-11T23:19:39.932Z,60.34
2023-03-11T23:22:07.910Z,59.90
2023-03-11T23:24:35.870Z,60.28
2023-03-11T23:27:05.902Z,61.33
2023-03-11T23:29:33.819Z,61.27
2023-03-11T23:32:01.761Z,61.79
2023-03-11T23:34:29.687Z,61.01
2023-03-11T23:36:57.632Z,62.71
2023-03-11T23:39:25.561Z,62.21
2023-03-11T23:41:53.534Z,62.17
2023-03-11T23:44:22.842Z,62.59
2023-03-11T23:46:50.791Z,61.59
2023-03-11T23:49:18.760Z,62.47
2023-03-11T23:51:46.757Z,62.13
2023-03-11T23:54:14.736Z,62.47
2023-03-11T23:56:42.649Z,62.02
2023-03-11T23:59:10.639Z,63.03
